createdAt,value
2023-01-07T00:02:57.378Z,1.65
2023-01-07T00:07:59.362Z,1.48
2023-01-07T00:13:00.030Z,1.67
2023-01-07T00:18:02.035Z,1.50
2023-01-07T00:23:03.174Z,1.45
2023-01-07T00:28:03.958Z,1.80
2023-01-07T00:33:07.254Z,1.75
2023-01-07T00:38:08.129Z,1.35
2023-01-07T00:43:08.820Z,1.40
2023-01-07T00:48:11.330Z,1.42
2023-01-07T00:53:12.875Z,1.27
2023-01-07T00:58:16.390Z,1.70
2023-01-07T01:03:19.456Z,1.40
2023-01-07T01:08:21.260Z,1.38
2023-01-07T01:13:22.186Z,1.30
2023-01-07T01:18:24.201Z,1.30
2023-01-07T01:23:24.885Z,1.60
2023-01-07T01:28:25.523Z,1.30
2023-01-07T01:33:27.518Z,1.27
2023-01-07T01:38:28.189Z,0.90
2023-01-07T01:43:31.900Z,1.25
2023-01-07T01:48:38.687Z,1.30
2023-01-07T01:53:39.403Z,1.25
2023-01-07T01:58:43.176Z,1.25
2023-01-07T02:03:47.391Z,1.30
2023-01-07T02:08:51.847Z,1.40
2023-01-07T02:14:10.037Z,1.08
2023-01-07T02:19:47.305Z,1.25
2023-01-07T02:25:08.104Z,1.15
2023-01-07T02:30:41.438Z,1.05
2023-01-07T02:36:09.733Z,1.10
2023-01-07T02:41:20.938Z,1.30
2023-01-07T02:46:28.623Z,1.30
2023-01-07T02:51:34.843Z,1.10
2023-01-07T02:56:51.617Z,0.95
2023-01-07T03:02:21.065Z,1.13
2023-01-07T03:07:34.959Z,0.90
2023-01-07T03:12:41.670Z,1.08
2023-01-07T03:17:49.208Z,0.95
2023-01-07T03:22:52.746Z,0.82
2023-01-07T03:27:54.543Z,1.00
2023-01-07T03:33:01.436Z,0.70
2023-01-07T03:38:05.469Z,0.55
2023-01-07T03:43:06.137Z,0.80
2023-01-07T03:48:07.825Z,0.80
2023-01-07T03:53:12.792Z,0.80
2023-01-07T03:58:15.320Z,0.73
2023-01-07T04:03:16.012Z,0.70
2023-01-07T04:08:21.198Z,0.65
2023-01-07T04:13:22.010Z,0.82
2023-01-07T04:18:24.368Z,0.73
2023-01-07T04:23:26.454Z,0.80
2023-01-07T04:28:28.829Z,0.60
2023-01-07T04:33:29.589Z,0.70
2023-01-07T04:38:31.818Z,0.70
2023-01-07T04:43:32.640Z,0.65
2023-01-07T04:48:33.612Z,0.60
2023-01-07T04:53:35.736Z,0.77
2023-01-07T04:58:38.172Z,0.50
2023-01-07T05:03:39.084Z,0.63
2023-01-07T05:08:41.516Z,0.60
2023-01-07T05:13:42.304Z,0.50
2023-01-07T05:18:43.064Z,0.60
2023-01-07T05:23:45.603Z,0.70
2023-01-07T05:28:46.935Z,0.80
2023-01-07T05:33:47.892Z,0.70
2023-01-07T05:38:50.678Z,0.60
2023-01-07T05:43:51.467Z,0.93
2023-01-07T05:48:54.149Z,0.60
2023-01-07T05:53:56.328Z,0.75
2023-01-07T05:58:57.023Z,0.70
2023-01-07T06:03:57.700Z,0.73
2023-01-07T06:08:59.727Z,0.70
2023-01-07T06:14:00.426Z,0.80
2023-01-07T06:19:01.112Z,0.70
2023-01-07T06:24:03.137Z,0.50
2023-01-07T06:29:03.792Z,0.68
2023-01-07T06:34:04.534Z,0.60
2023-01-07T06:39:06.574Z,0.70
2023-01-07T06:44:07.597Z,0.50
2023-01-07T06:49:08.242Z,0.80
2023-01-07T06:54:11.559Z,1.00
2023-01-07T06:59:12.503Z,1.02
2023-01-07T07:04:13.191Z,0.95
2023-01-07T07:09:15.177Z,1.05
2023-01-07T07:14:15.865Z,1.42
2023-01-07T07:19:16.544Z,1.70
2023-01-07T07:24:18.522Z,2.30
2023-01-07T07:29:21.669Z,1.40
2023-01-07T07:34:22.440Z,1.40
2023-01-07T07:39:24.502Z,1.60
2023-01-07T07:44:25.274Z,1.23
2023-01-07T07:49:25.930Z,1.60
2023-01-07T07:54:28.454Z,1.77
2023-01-07T07:59:29.095Z,1.50
2023-01-07T08:04:34.000Z,1.70
2023-01-07T08:09:36.104Z,1.60
2023-01-07T08:14:37.230Z,1.70
2023-01-07T08:19:37.924Z,2.15
2023-01-07T08:24:39.907Z,1.80
2023-01-07T08:29:40.595Z,2.30
2023-01-07T08:34:41.435Z,1.88
2023-01-07T08:39:43.441Z,1.90
2023-01-07T08:44:44.154Z,2.10
2023-01-07T08:49:44.833Z,2.85
2023-01-07T08:54:48.098Z,3.38
2023-01-07T08:59:49.023Z,3.92
2023-01-07T09:04:49.723Z,2.90
2023-01-07T09:09:51.751Z,3.28
2023-01-07T09:14:53.670Z,4.72
2023-01-07T09:19:54.465Z,3.97
2023-01-07T09:24:56.492Z,3.50
2023-01-07T09:29:58.586Z,3.50
2023-01-07T09:34:59.456Z,3.58
2023-01-07T09:40:01.631Z,3.40
2023-01-07T09:45:11.691Z,3.33
2023-01-07T09:50:22.262Z,3.25
2023-01-07T09:55:32.858Z,4.15
2023-01-07T10:00:38.323Z,4.25
2023-01-07T10:05:47.968Z,4.30
2023-01-07T10:10:56.419Z,4.47
2023-01-07T10:16:04.498Z,4.53
2023-01-07T10:21:15.754Z,4.03
2023-01-07T10:26:29.078Z,4.38
2023-01-07T10:31:30.721Z,3.55
2023-01-07T10:36:39.690Z,3.70
2023-01-07T10:41:53.936Z,2.97
2023-01-07T10:47:06.464Z,3.17
2023-01-07T10:52:17.167Z,3.67
2023-01-07T10:57:22.155Z,3.33
2023-01-07T11:02:27.335Z,3.17
2023-01-07T11:07:40.269Z,3.33
2023-01-07T11:12:46.442Z,3.70
2023-01-07T11:17:49.996Z,3.55
2023-01-07T11:22:50.717Z,3.17
2023-01-07T11:27:53.374Z,3.47
2023-01-07T11:32:59.576Z,3.88
2023-01-07T11:38:01.230Z,3.40
2023-01-07T11:43:21.761Z,1.92
2023-01-07T11:48:29.977Z,2.40
2023-01-07T11:53:42.879Z,2.28
2023-01-07T11:58:47.839Z,2.70
2023-01-07T12:04:10.329Z,2.50
2023-01-07T12:09:23.602Z,2.58
2023-01-07T12:14:29.397Z,2.88
2023-01-07T12:19:50.974Z,3.33
2023-01-07T12:25:09.946Z,3.67
2023-01-07T12:30:29.991Z,3.80
2023-01-07T12:35:34.267Z,3.15
2023-01-07T12:40:41.787Z,3.42
2023-01-07T12:45:50.165Z,3.45
2023-01-07T12:50:55.225Z,3.88
2023-01-07T12:56:00.090Z,3.13
2023-01-07T13:01:08.073Z,2.75
2023-01-07T13:06:15.366Z,2.70
2023-01-07T13:11:42.655Z,2.63
2023-01-07T13:16:45.127Z,2.85
2023-01-07T13:21:49.205Z,2.58
2023-01-07T13:26:59.395Z,2.65
2023-01-07T13:32:25.675Z,2.83
2023-01-07T13:37:47.032Z,2.08
2023-01-07T13:42:53.549Z,1.40
2023-01-07T13:47:59.192Z,1.20
2023-01-07T13:53:02.796Z,0.77
2023-01-07T13:58:04.244Z,1.10
2023-01-07T14:03:35.656Z,1.30
2023-01-07T14:08:37.630Z,1.52
2023-01-07T14:13:43.989Z,1.20
2023-01-07T14:19:07.926Z,1.83
2023-01-07T14:24:26.230Z,1.73
2023-01-07T14:29:42.182Z,1.40
2023-01-07T14:34:54.910Z,1.17
2023-01-07T14:39:55.618Z,1.00
2023-01-07T14:44:56.320Z,1.00
2023-01-07T14:50:18.973Z,1.00
2023-01-07T14:55:42.441Z,1.30
2023-01-07T15:00:59.457Z,1.30
2023-01-07T15:06:25.011Z,1.23
2023-01-07T15:11:44.910Z,1.58
2023-01-07T15:16:50.182Z,2.25
2023-01-07T15:22:06.063Z,3.50
2023-01-07T15:27:14.588Z,3.00
2023-01-07T15:32:27.932Z,3.63
2023-01-07T15:37:30.106Z,3.72
2023-01-07T15:42:32.922Z,3.72
2023-01-07T15:47:39.076Z,3.95
2023-01-07T15:52:41.142Z,4.07
2023-01-07T15:57:44.037Z,4.18
2023-01-07T16:02:45.688Z,3.30
2023-01-07T16:07:53.806Z,4.35
2023-01-07T16:12:57.067Z,3.88
2023-01-07T16:17:59.669Z,4.13
2023-01-07T16:23:21.258Z,4.97
2023-01-07T16:28:24.770Z,4.30
2023-01-07T16:33:28.800Z,5.00
2023-01-07T16:38:33.548Z,4.85
2023-01-07T16:43:45.868Z,5.13
2023-01-07T16:48:47.214Z,4.93
2023-01-07T16:53:50.428Z,4.90
2023-01-07T16:58:53.949Z,4.80
2023-01-07T17:03:58.562Z,4.55
2023-01-07T17:09:00.949Z,4.45
2023-01-07T17:14:01.728Z,4.63
2023-01-07T17:19:24.352Z,4.85
2023-01-07T17:24:48.541Z,4.45
2023-01-07T17:29:50.060Z,5.55
2023-01-07T17:34:51.061Z,6.93
2023-01-07T17:39:53.183Z,6.70
2023-01-07T17:44:54.011Z,6.85
2023-01-07T17:49:54.785Z,6.78
2023-01-07T17:54:57.015Z,5.97
2023-01-07T17:59:58.135Z,5.75
2023-01-07T18:04:58.865Z,7.05
2023-01-07T18:10:00.892Z,7.43
2023-01-07T18:15:03.245Z,7.30
2023-01-07T18:20:03.990Z,6.90
2023-01-07T18:25:06.972Z,10.85
2023-01-07T18:30:11.007Z,10.15
2023-01-07T18:35:12.396Z,8.65
2023-01-07T18:40:14.707Z,9.40
2023-01-07T18:45:15.817Z,8.80
2023-01-07T18:50:18.064Z,10.27
2023-01-07T18:55:21.023Z,9.85
2023-01-07T19:00:22.181Z,8.90
2023-01-07T19:05:22.885Z,10.07
2023-01-07T19:10:26.465Z,10.30
2023-01-07T19:15:27.172Z,11.27
2023-01-07T19:20:27.865Z,11.77
2023-01-07T19:25:30.526Z,12.75
2023-01-07T19:30:31.317Z,11.80
2023-01-07T19:35:32.270Z,12.93
2023-01-07T19:40:34.362Z,13.18
2023-01-07T19:45:35.160Z,13.00
2023-01-07T19:50:35.956Z,12.27
2023-01-07T19:55:37.958Z,13.40
2023-01-07T20:00:38.637Z,11.77
2023-01-07T20:05:39.793Z,13.23
2023-01-07T20:10:43.996Z,13.00
2023-01-07T20:15:47.256Z,12.77
2023-01-07T20:20:56.092Z,13.80
2023-01-07T20:26:00.058Z,14.45
2023-01-07T20:31:00.831Z,13.65
2023-01-07T20:36:02.459Z,14.57
2023-01-07T20:41:05.596Z,13.77
2023-01-07T20:46:08.504Z,13.90
2023-01-07T20:51:10.125Z,13.65
2023-01-07T20:56:12.473Z,13.02
2023-01-07T21:01:17.320Z,13.63
2023-01-07T21:06:20.242Z,13.80
2023-01-07T21:11:24.598Z,15.45
2023-01-07T21:16:27.481Z,14.70
2023-01-07T21:21:28.426Z,14.88
2023-01-07T21:26:30.511Z,15.63
2023-01-07T21:31:31.309Z,15.93
2023-01-07T21:36:32.072Z,15.02
2023-01-07T21:41:34.172Z,14.68
2023-01-07T21:46:34.849Z,13.88
2023-01-07T21:51:35.534Z,14.48
2023-01-07T21:56:37.526Z,13.48
2023-01-07T22:01:38.516Z,13.10
2023-01-07T22:06:39.363Z,11.60
2023-01-07T22:11:42.373Z,11.25
2023-01-07T22:16:43.844Z,10.70
2023-01-07T22:21:44.576Z,9.00
2023-01-07T22:26:46.614Z,8.77
2023-01-07T22:31:49.728Z,7.35
2023-01-07T22:36:55.124Z,7.78
2023-01-07T22:42:01.478Z,6.88
2023-01-07T22:47:03.260Z,7.18
2023-01-07T22:52:04.161Z,7.00
2023-01-07T22:57:09.021Z,7.00
2023-01-07T23:02:09.880Z,7.40
2023-01-07T23:07:10.547Z,6.70
2023-01-07T23:12:13.468Z,7.53
2023-01-07T23:17:14.131Z,7.28
2023-01-07T23:22:14.818Z,7.05
2023-01-07T23:27:16.831Z,7.68
2023-01-07T23:32:17.503Z,7.00
2023-01-07T23:37:18.245Z,7.53
2023-01-07T23:42:20.287Z,7.68
2023-01-07T23:47:20.945Z,7.20
2023-01-07T23:52:21.583Z,6.80
2023-01-07T23:57:23.590Z,6.97
